createdAt,value
2023-04-15T00:01:52.875Z,5
2023-04-15T00:11:55.392Z,5.1
2023-04-15T00:21:57.628Z,5.3
2023-04-15T00:31:59.423Z,4.9
2023-04-15T00:42:01.800Z,4.5
2023-04-15T00:52:04.230Z,4.4
2023-04-15T01:02:05.900Z,4.7
2023-04-15T01:12:08.128Z,4.1
2023-04-15T01:22:10.719Z,4.1
2023-04-15T01:32:12.464Z,3.9
2023-04-15T01:42:14.908Z,4.2
2023-04-15T01:52:17.332Z,4.3
2023-04-15T02:02:19.415Z,4
2023-04-15T02:12:21.643Z,4.5
2023-04-15T02:22:23.331Z,3.9
2023-04-15T02:42:27.821Z,3.9
2023-04-15T02:52:29.611Z,4
2023-04-15T03:02:32.197Z,4.1
2023-04-15T03:12:33.879Z,3.9
2023-04-15T03:22:36.515Z,3.7
2023-04-15T03:32:39.098Z,3.5
2023-04-15T03:42:41.012Z,3.3
2023-04-15T03:52:42.802Z,2.8
2023-04-15T04:02:45.737Z,2.9
2023-04-15T04:12:47.676Z,3.1
2023-04-15T04:22:50.038Z,2.6
2023-04-15T04:42:54.267Z,2.3
2023-04-15T04:52:56.507Z,2.6
2023-04-15T05:02:58.589Z,2.9
2023-04-15T05:13:00.562Z,2.7
2023-04-15T05:23:03.236Z,3
2023-04-15T05:33:05.628Z,3
2023-04-15T05:43:07.964Z,3.1
2023-04-15T05:53:09.819Z,3.4
2023-04-15T06:03:11.616Z,3.6
2023-04-15T06:13:13.484Z,4
2023-04-15T06:33:18.320Z,4.6
2023-04-15T06:43:20.099Z,5.1
2023-04-15T06:53:22.043Z,5.5
2023-04-15T07:03:24.251Z,5.7
2023-04-15T07:13:25.873Z,5.9
2023-04-15T07:23:28.391Z,6.1
2023-04-15T07:33:30.143Z,6.5
2023-04-15T07:43:31.804Z,6.7
2023-04-15T07:53:34.321Z,7.4
2023-04-15T08:03:36.317Z,7.6
2023-04-15T08:13:38.813Z,7.7
2023-04-15T08:23:40.761Z,7.7
2023-04-15T08:33:42.688Z,7.9
2023-04-15T08:43:44.608Z,8
2023-04-15T08:53:46.586Z,7.9
2023-04-15T09:03:48.973Z,7.8
2023-04-15T09:13:51.184Z,7.7
2023-04-15T09:23:53.848Z,7.7
2023-04-15T09:43:58.483Z,8
2023-04-15T09:54:00.475Z,8
2023-04-15T10:04:02.802Z,8.2
2023-04-15T10:14:04.858Z,8.8
2023-04-15T10:24:06.682Z,8.2
2023-04-15T10:34:09.177Z,8.6
2023-04-15T10:44:11.411Z,8.3
2023-04-15T11:04:15.747Z,8.3
2023-04-15T11:14:17.378Z,8.5
2023-04-15T11:24:19.992Z,8.5
2023-04-15T11:34:22.237Z,8.4
2023-04-15T11:44:24.111Z,8.5
2023-04-15T11:54:25.837Z,8.8
2023-04-15T12:14:29.521Z,8.7
2023-04-15T12:24:31.375Z,8.8
2023-04-15T12:34:33.583Z,8.8
2023-04-15T12:44:35.421Z,8.9
2023-04-15T12:54:37.519Z,9.2
2023-04-15T13:04:39.530Z,9.2
2023-04-15T13:14:41.287Z,8.9
2023-04-15T13:24:43.348Z,8.8
2023-04-15T13:34:45.671Z,8.8
2023-04-15T13:44:48.014Z,8.8
2023-04-15T13:55:01.932Z,8.7
2023-04-15T14:04:53.005Z,8.7
2023-04-15T14:14:55.479Z,8.5
2023-04-15T14:24:57.286Z,8.2
2023-04-15T14:34:59.835Z,8.1
2023-04-15T14:55:03.862Z,8.3
2023-04-15T15:05:06.192Z,8.2
2023-04-15T15:15:16.063Z,8.2
2023-04-15T15:25:10.765Z,8
2023-04-15T15:35:12.682Z,7.8
2023-04-15T15:55:17.388Z,7.6
2023-04-15T16:05:19.650Z,7.5
2023-04-15T16:15:21.729Z,7.4
2023-04-15T16:25:23.433Z,7.3
2023-04-15T16:35:25.336Z,7.2
2023-04-15T16:45:27.726Z,7.2
2023-04-15T16:55:29.406Z,7.2
2023-04-15T17:05:31.446Z,7.2
2023-04-15T17:15:33.817Z,7.2
2023-04-15T17:25:35.751Z,7.2
2023-04-15T17:35:38.237Z,7.2
2023-04-15T17:45:40.753Z,7.1
2023-04-15T17:55:43.240Z,7.1
2023-04-15T18:05:45.195Z,7.1
2023-04-15T18:15:47.675Z,7.1
2023-04-15T18:25:50.175Z,7
2023-04-15T18:35:52.812Z,7.1
2023-04-15T18:45:54.633Z,7
2023-04-15T18:55:56.803Z,6.9
2023-04-15T19:05:58.991Z,7
2023-04-15T19:16:00.871Z,7
2023-04-15T19:26:03.216Z,7.1
2023-04-15T19:36:05.637Z,7
2023-04-15T19:56:10.245Z,6.9
2023-04-15T20:06:12.381Z,6.9
2023-04-15T20:16:14.702Z,6.9
2023-04-15T20:26:16.752Z,6.9
2023-04-15T20:46:21.739Z,6.9
2023-04-15T20:56:23.284Z,6.8
2023-04-15T21:06:25.140Z,6.8
2023-04-15T21:16:27.214Z,6.8
2023-04-15T21:26:29.337Z,6.8
2023-04-15T21:36:31.638Z,6.8
2023-04-15T21:46:35.390Z,6.8
2023-04-15T21:56:35.980Z,6.8
2023-04-15T22:06:37.722Z,6.8
2023-04-15T22:16:39.708Z,6.8
2023-04-15T22:26:41.980Z,6.8
2023-04-15T22:36:44.387Z,6.8
2023-04-15T22:46:46.331Z,6.8
2023-04-15T22:56:48.338Z,6.8
2023-04-15T23:06:50.567Z,6.8
2023-04-15T23:16:53.008Z,6.8
2023-04-15T23:36:56.753Z,6.8
2023-04-15T23:46:59.278Z,6.8
2023-04-15T23:47:06.186Z,6.8
2023-04-15T23:57:08.198Z,6.8
